Time;durP1;ratioP1;P1;durP2;ratioP2;P2;SDS_P1;SDS_P2;PMS_P1;PMS_P2;Temp;Humidity;BMP_temperature;BMP_pressure;BME280_temperature;BME280_humidity;BME280_pressure;Samples;Min_cycle;Max_cycle;Signal;HPM_P1;HPM_P2
2021/09/16 00:00:16;;;;;;;;;;;;;;;19.42;67.04;101182.03;5075848;28;1913;-58
2021/09/16 00:02:41;;;;;;;;;;;;;;;19.42;66.80;101179.34;5076311;28;960;-58
2021/09/16 00:05:06;;;;;;;;;;;;;;;19.41;66.58;101177.63;5063147;28;1790;-58
2021/09/16 00:07:31;;;;;;;;;;;;;;;19.40;66.98;101189.44;5038376;28;1711;-58
2021/09/16 00:09:57;;;;;;;;;;;;;;;19.40;66.42;101190.28;5056534;28;1212;-58
2021/09/16 00:12:22;;;;;;;;;;;;;;;19.40;67.02;101189.44;5055766;28;961;-58
2021/09/16 00:14:47;;;;;;;;;;;;;;;19.39;67.30;101190.44;5056414;28;811;-58
2021/09/16 00:17:12;;;;;;;;;;;;;;;19.39;66.43;101190.44;5056353;28;993;-58
2021/09/16 00:19:37;;;;;;;;;;;;;;;19.37;66.51;101184.31;5056506;28;1959;-58
2021/09/16 00:22:02;;;;;;;;;;;;;;;19.37;66.40;101190.59;5076010;28;930;-58
2021/09/16 00:24:27;;;;;;;;;;;;;;;19.38;66.75;101188.75;5075919;28;1055;-58
2021/09/16 00:26:52;;;;;;;;;;;;;;;19.37;66.44;101198.69;5075752;28;1075;-59
2021/09/16 00:29:17;;;;;;;;;;;;;;;19.36;66.42;101197.00;5076039;28;885;-59
2021/09/16 00:31:42;;;;;;;;;;;;;;;19.36;66.59;101198.84;5076091;28;1001;-58
2021/09/16 00:34:07;;;;;;;;;;;;;;;19.35;66.68;101202.53;5075673;28;917;-58
2021/09/16 00:36:32;;;;;;;;;;;;;;;19.35;66.54;101189.03;5066369;28;1688;-58
2021/09/16 00:38:57;;;;;;;;;;;;;;;19.31;66.19;101183.09;5055779;28;989;-56
2021/09/16 00:41:23;;;;;;;;;;;;;;;19.30;66.58;101181.38;5055589;28;1959;-57
2021/09/16 00:43:48;;;;;;;;;;;;;;;19.30;66.48;101183.25;5055425;28;1660;-56
2021/09/16 00:46:13;;;;;;;;;;;;;;;19.31;66.31;101182.25;5075012;28;1390;-55
2021/09/16 00:48:38;;;;;;;;;;;;;;;19.31;66.70;101196.59;5075320;28;1013;-54
2021/09/16 00:51:03;;;;;;;;;;;;;;;19.31;66.83;101185.78;5074547;28;1618;-57
2021/09/16 00:53:28;;;;;;;;;;;;;;;19.31;66.84;101183.09;5055485;28;1057;-57
2021/09/16 00:55:53;;;;;;;;;;;;;;;19.31;66.95;101179.53;5055583;28;1013;-58
2021/09/16 00:58:18;;;;;;;;;;;;;;;19.31;66.96;101187.66;5055164;28;1336;-58
2021/09/16 01:00:43;;;;;;;;;;;;;;;19.31;66.78;101187.66;5054888;28;1918;-57
2021/09/16 01:03:08;;;;;;;;;;;;;;;19.31;66.53;101182.25;5055088;28;905;-57
2021/09/16 01:05:33;;;;;;;;;;;;;;;19.31;66.98;101188.50;5037820;28;1726;-58
2021/09/16 01:07:59;;;;;;;;;;;;;;;19.31;67.04;101187.66;5047440;28;1460;-57
2021/09/16 01:10:24;;;;;;;;;;;;;;;19.32;66.47;101192.06;5060241;28;1595;-58
2021/09/16 01:12:49;;;;;;;;;;;;;;;19.32;66.98;101195.59;5054780;28;874;-58
2021/09/16 01:15:15;;;;;;;;;;;;;;;19.30;67.13;101196.75;5054910;28;1126;-57
2021/09/16 01:17:40;;;;;;;;;;;;;;;19.29;66.29;101195.03;5055451;28;847;-57
2021/09/16 01:20:06;;;;;;;;;;;;;;;19.30;66.54;101196.75;5055142;28;1893;-57
2021/09/16 01:22:31;;;;;;;;;;;;;;;19.28;67.15;101196.91;5055933;28;1575;-57
2021/09/16 01:24:56;;;;;;;;;;;;;;;19.28;67.14;101191.50;5074755;28;1004;-58
2021/09/16 01:27:21;;;;;;;;;;;;;;;19.28;66.92;101191.50;5075012;28;886;-56
2021/09/16 01:29:46;;;;;;;;;;;;;;;19.27;67.34;101197.88;5074784;28;1056;-56
2021/09/16 01:32:11;;;;;;;;;;;;;;;19.27;67.44;101191.63;5074482;28;1672;-55
2021/09/16 01:34:36;;;;;;;;;;;;;;;19.26;66.37;101195.34;5074473;28;1168;-56
2021/09/16 01:37:01;;;;;;;;;;;;;;;19.26;66.79;101193.47;5074772;28;1087;-54
2021/09/16 01:39:26;;;;;;;;;;;;;;;19.25;66.86;101190.94;5065273;28;1951;-56
2021/09/16 01:41:51;;;;;;;;;;;;;;;19.24;67.56;101187.38;5054632;28;866;-55
2021/09/16 01:44:16;;;;;;;;;;;;;;;19.23;67.72;101190.22;5054545;28;1780;-56
2021/09/16 01:46:43;;;;;;;;;;;;;;;19.23;66.78;101182.09;5054770;28;787;-55
2021/09/16 01:49:08;;;;;;;;;;;;;;;19.22;66.93;101193.91;5054833;28;799;-57
2021/09/16 01:51:33;;;;;;;;;;;;;;;19.22;67.01;101189.38;5054658;28;1075;-57
2021/09/16 01:53:58;;;;;;;;;;;;;;;19.22;67.04;101192.06;5054742;28;1076;-57
2021/09/16 01:56:23;;;;;;;;;;;;;;;19.21;67.14;101182.25;5071613;28;1775;-57
2021/09/16 01:58:48;;;;;;;;;;;;;;;19.19;67.46;101195.06;5074364;28;1134;-58
2021/09/16 02:01:13;;;;;;;;;;;;;;;19.18;67.38;101189.78;5074297;28;1914;-58
2021/09/16 02:03:38;;;;;;;;;;;;;;;19.20;66.50;101190.50;5074507;28;799;-58
2021/09/16 02:06:03;;;;;;;;;;;;;;;19.19;67.10;101188.78;5074445;28;1172;-58
2021/09/16 02:08:29;;;;;;;;;;;;;;;19.19;66.94;101191.50;5074675;28;1016;-59
2021/09/16 02:10:54;;;;;;;;;;;;;;;19.16;66.68;101187.28;5063268;28;1613;-59
2021/09/16 02:13:19;;;;;;;;;;;;;;;19.18;67.04;101192.50;5069122;28;1586;-57
2021/09/16 02:15:44;;;;;;;;;;;;;;;19.17;66.68;101194.34;5074311;28;838;-57
2021/09/16 02:18:09;;;;;;;;;;;;;;;19.17;67.42;101185.41;5074457;28;1000;-57
2021/09/16 02:20:34;;;;;;;;;;;;;;;19.16;66.67;101194.53;5074788;28;1948;-58
2021/09/16 02:22:59;;;;;;;;;;;;;;;19.15;66.57;101190.13;5076382;28;897;-58
2021/09/16 02:25:24;;;;;;;;;;;;;;;19.16;66.41;101189.13;5077159;28;1585;-58
2021/09/16 02:27:49;;;;;;;;;;;;;;;19.16;66.94;101191.81;5058135;28;945;-59
2021/09/16 02:30:14;;;;;;;;;;;;;;;19.15;66.98;101203.63;5058320;28;870;-58
2021/09/16 02:32:39;;;;;;;;;;;;;;;19.13;66.88;101197.50;5058456;28;1009;-57
2021/09/16 02:35:04;;;;;;;;;;;;;;;19.14;66.91;101193.81;5069582;28;1535;-57
2021/09/16 02:37:29;;;;;;;;;;;;;;;19.12;66.52;101198.50;5078020;28;865;-57
2021/09/16 02:39:54;;;;;;;;;;;;;;;19.13;66.98;101194.81;5077965;28;1910;-57
2021/09/16 02:42:20;;;;;;;;;;;;;;;19.11;67.09;101189.56;5065041;28;1413;-56
2021/09/16 02:44:45;;;;;;;;;;;;;;;19.10;66.77;101189.69;5057946;28;807;-57
2021/09/16 02:47:10;;;;;;;;;;;;;;;19.11;66.86;101191.41;5057869;28;843;-57
2021/09/16 02:49:35;;;;;;;;;;;;;;;19.12;66.68;101195.81;5057791;28;1005;-56
2021/09/16 02:52:00;;;;;;;;;;;;;;;19.10;67.00;101195.09;5057860;28;997;-57
2021/09/16 02:54:25;;;;;;;;;;;;;;;19.08;66.91;101196.09;5057848;28;930;-59
2021/09/16 02:56:50;;;;;;;;;;;;;;;19.06;67.15;101195.38;5061357;28;1699;-58
2021/09/16 02:59:15;;;;;;;;;;;;;;;19.06;66.70;101198.09;5077525;28;1914;-59
2021/09/16 03:01:40;;;;;;;;;;;;;;;19.07;67.16;101207.91;5059724;28;969;-58
2021/09/16 03:04:05;;;;;;;;;;;;;;;19.07;67.07;101201.63;5077846;28;1020;-58
2021/09/16 03:06:30;;;;;;;;;;;;;;;19.07;67.09;101210.59;5077581;28;1033;-58
2021/09/16 03:08:55;;;;;;;;;;;;;;;19.05;66.25;101201.78;5077683;28;763;-58
2021/09/16 03:11:20;;;;;;;;;;;;;;;19.05;67.01;101207.19;5077314;28;1001;-58
2021/09/16 03:13:46;;;;;;;;;;;;;;;19.02;66.97;101207.47;5076606;28;1396;-58
2021/09/16 03:16:11;;;;;;;;;;;;;;;19.02;66.50;101210.16;5077132;28;1354;-58
2021/09/16 03:18:36;;;;;;;;;;;;;;;19.02;66.23;101210.16;5077162;28;1001;-58
2021/09/16 03:21:01;;;;;;;;;;;;;;;19.00;66.89;101209.47;5077161;28;1890;-58
2021/09/16 03:23:26;;;;;;;;;;;;;;;19.02;66.45;101212.03;5075723;28;1669;-58
2021/09/16 03:25:51;;;;;;;;;;;;;;;19.01;66.19;101208.47;5077137;28;1098;-58
2021/09/16 03:28:16;;;;;;;;;;;;;;;19.02;66.21;101214.72;5077402;28;1065;-58
2021/09/16 03:30:41;;;;;;;;;;;;;;;19.02;66.77;101212.03;5076868;28;960;-58
2021/09/16 03:33:06;;;;;;;;;;;;;;;19.01;66.71;101218.41;5077144;28;953;-58
2021/09/16 03:35:31;;;;;;;;;;;;;;;19.01;66.15;101230.06;5076483;28;945;-58
2021/09/16 03:37:56;;;;;;;;;;;;;;;19.01;66.42;101226.53;5060447;28;1536;-58
2021/09/16 03:40:22;;;;;;;;;;;;;;;19.00;66.77;101227.50;5056757;28;1898;-58
2021/09/16 03:42:50;;;;;;;;;;;;;;;18.99;66.62;101237.47;5056755;28;767;-58
2021/09/16 03:45:15;;;;;;;;;;;;;;;18.98;66.88;101224.13;5056757;28;1930;-58
2021/09/16 03:47:40;;;;;;;;;;;;;;;18.98;66.74;101218.72;5056555;28;878;-59
2021/09/16 03:50:05;;;;;;;;;;;;;;;18.97;67.30;101227.84;5056875;28;997;-58
2021/09/16 03:52:30;;;;;;;;;;;;;;;18.96;66.53;101229.69;5061946;28;1554;-58
2021/09/16 03:54:55;;;;;;;;;;;;;;;18.97;66.95;101242.19;5058607;28;834;-58
2021/09/16 03:57:20;;;;;;;;;;;;;;;18.96;66.16;101245.03;5076447;28;993;-58
2021/09/16 03:59:45;;;;;;;;;;;;;;;18.95;66.94;101246.88;5076561;28;1987;-59
2021/09/16 04:02:10;;;;;;;;;;;;;;;18.94;67.01;101250.56;5076470;28;782;-58
2021/09/16 04:04:35;;;;;;;;;;;;;;;18.94;67.00;101247.03;5076374;28;787;-58
2021/09/16 04:07:00;;;;;;;;;;;;;;;18.92;66.12;101249.88;5065080;28;1787;-58
2021/09/16 04:09:25;;;;;;;;;;;;;;;18.92;66.22;101251.72;5038486;28;1366;-58
2021/09/16 04:11:51;;;;;;;;;;;;;;;18.91;66.04;101250.84;5056155;28;1698;-58
2021/09/16 04:14:16;;;;;;;;;;;;;;;18.91;66.44;101245.47;5056042;28;886;-59
2021/09/16 04:16:41;;;;;;;;;;;;;;;18.92;66.41;101247.16;5055974;28;981;-57
2021/09/16 04:19:06;;;;;;;;;;;;;;;18.91;66.07;101255.41;5055957;28;807;-55
2021/09/16 04:21:31;;;;;;;;;;;;;;;18.92;67.02;101249.88;5059387;28;1957;-57
2021/09/16 04:23:56;;;;;;;;;;;;;;;18.93;66.30;101253.41;5075805;28;1436;-57
2021/09/16 04:26:21;;;;;;;;;;;;;;;18.91;66.82;101256.25;5075689;28;937;-56
2021/09/16 04:28:46;;;;;;;;;;;;;;;18.91;66.71;101255.41;5075732;28;989;-57
2021/09/16 04:31:11;;;;;;;;;;;;;;;18.91;66.45;101263.50;5075681;28;925;-58
2021/09/16 04:33:36;;;;;;;;;;;;;;;18.91;66.38;101256.25;5056966;28;1576;-57
2021/09/16 04:36:01;;;;;;;;;;;;;;;18.91;66.06;101252.72;5055936;28;1056;-56
2021/09/16 04:38:26;;;;;;;;;;;;;;;18.91;66.50;101252.72;5055646;28;961;-56
2021/09/16 04:40:52;;;;;;;;;;;;;;;18.89;66.59;101260.94;5055681;28;1886;-57
2021/09/16 04:43:17;;;;;;;;;;;;;;;18.90;66.29;101264.50;5055660;28;799;-57
2021/09/16 04:45:42;;;;;;;;;;;;;;;18.89;66.38;101257.41;5054939;28;1612;-57
2021/09/16 04:48:07;;;;;;;;;;;;;;;18.88;66.70;101256.53;5055579;28;838;-57
2021/09/16 04:50:32;;;;;;;;;;;;;;;18.89;66.86;101262.78;5055400;28;889;-57
2021/09/16 04:52:57;;;;;;;;;;;;;;;18.88;66.95;101264.63;5061840;28;1721;-57
2021/09/16 04:55:22;;;;;;;;;;;;;;;18.88;67.09;101271.88;5064653;28;1491;-58
2021/09/16 04:57:47;;;;;;;;;;;;;;;18.89;66.38;101269.06;5057747;28;1406;-58
2021/09/16 05:00:12;;;;;;;;;;;;;;;18.89;67.01;101266.34;5056457;28;1906;-57
2021/09/16 05:02:37;;;;;;;;;;;;;;;18.91;67.00;101271.59;5058645;28;1499;-58
2021/09/16 05:05:02;;;;;;;;;;;;;;;18.89;67.39;101269.06;5064169;28;1645;-58
2021/09/16 05:07:27;;;;;;;;;;;;;;;18.89;66.81;101263.66;5056503;28;1724;-58
2021/09/16 05:09:52;;;;;;;;;;;;;;;18.90;67.05;101265.34;5055640;28;943;-59
2021/09/16 05:12:18;;;;;;;;;;;;;;;18.91;66.97;101264.34;5055514;28;1800;-58
2021/09/16 05:14:43;;;;;;;;;;;;;;;18.94;66.71;101269.47;5055692;28;857;-59
2021/09/16 05:17:08;;;;;;;;;;;;;;;18.99;67.86;101263.63;5059642;28;1586;-58
2021/09/16 05:19:33;;;;;;;;;;;;;;;19.02;66.97;101264.19;5068180;28;1897;-58
2021/09/16 05:21:58;;;;;;;;;;;;;;;19.03;68.37;101268.59;5063637;28;1410;-59
2021/09/16 05:24:23;;;;;;;;;;;;;;;19.05;67.80;101272.00;5063470;28;1421;-59
2021/09/16 05:26:48;;;;;;;;;;;;;;;19.04;68.62;101270.31;5065298;28;1673;-59
2021/09/16 05:29:13;;;;;;;;;;;;;;;19.03;68.55;101274.00;5066111;28;1383;-59
2021/09/16 05:31:38;;;;;;;;;;;;;;;19.02;69.40;101275.00;5064525;28;1352;-58
2021/09/16 05:34:03;;;;;;;;;;;;;;;19.01;68.53;101278.69;5062928;28;1346;-59
2021/09/16 05:36:28;;;;;;;;;;;;;;;19.01;69.04;101284.09;5055414;28;1449;-58
2021/09/16 05:38:54;;;;;;;;;;;;;;;19.00;68.98;101284.25;5055223;28;990;-58
2021/09/16 05:41:19;;;;;;;;;;;;;;;18.98;69.60;101284.41;5064410;28;1961;-60
2021/09/16 05:43:44;;;;;;;;;;;;;;;18.98;69.80;101283.56;5075234;28;1373;-59
2021/09/16 05:46:09;;;;;;;;;;;;;;;18.98;69.12;101284.41;5075212;28;1837;-60
2021/09/16 05:48:34;;;;;;;;;;;;;;;18.97;69.85;101288.09;5074899;28;968;-60
2021/09/16 05:50:59;;;;;;;;;;;;;;;18.98;69.48;101287.13;5075101;28;802;-60
2021/09/16 05:53:24;;;;;;;;;;;;;;;18.97;69.56;101292.66;5068481;28;1633;-59
2021/09/16 05:55:49;;;;;;;;;;;;;;;18.97;68.77;101298.91;5068430;28;1649;-60
2021/09/16 05:58:14;;;;;;;;;;;;;;;18.97;69.50;101304.31;5070961;28;1714;-59
2021/09/16 06:00:39;;;;;;;;;;;;;;;18.97;69.47;101303.47;5079194;28;1972;-59
2021/09/16 06:03:04;;;;;;;;;;;;;;;18.96;68.73;101309.84;5078685;28;827;-60
2021/09/16 06:05:29;;;;;;;;;;;;;;;18.96;69.07;101304.44;5078597;28;1007;-59
2021/09/16 06:07:54;;;;;;;;;;;;;;;18.96;69.54;101309.84;5079138;28;1609;-59
2021/09/16 06:10:20;;;;;;;;;;;;;;;18.96;69.22;101317.97;5060583;28;1528;-59
2021/09/16 06:12:45;;;;;;;;;;;;;;;18.95;69.29;101305.44;5069266;28;1889;-59
2021/09/16 06:15:10;;;;;;;;;;;;;;;18.94;69.42;101315.41;5058858;28;948;-59
2021/09/16 06:17:35;;;;;;;;;;;;;;;18.94;69.46;101315.41;5058874;28;1766;-59
2021/09/16 06:20:00;;;;;;;;;;;;;;;18.94;69.03;101323.50;5058790;28;1910;-59
2021/09/16 06:22:25;;;;;;;;;;;;;;;18.92;68.82;101320.09;5058193;28;791;-59
2021/09/16 06:24:50;;;;;;;;;;;;;;;18.93;68.58;101321.78;5058405;28;874;-60
2021/09/16 06:27:15;;;;;;;;;;;;;;;18.94;68.68;101319.94;5058120;28;932;-59
2021/09/16 06:29:40;;;;;;;;;;;;;;;18.92;68.31;101316.53;5076646;28;1763;-59
2021/09/16 06:32:06;;;;;;;;;;;;;;;18.93;68.24;101329.91;5059986;28;906;-59
2021/09/16 06:34:31;;;;;;;;;;;;;;;18.93;68.93;101321.78;5078028;28;842;-59
2021/09/16 06:36:57;;;;;;;;;;;;;;;18.92;69.12;101319.22;5078518;28;936;-59
2021/09/16 06:39:22;;;;;;;;;;;;;;;18.93;68.58;101320.94;5078043;28;1902;-59
2021/09/16 06:41:47;;;;;;;;;;;;;;;18.92;68.61;101321.94;5059884;28;909;-59
2021/09/16 06:44:12;;;;;;;;;;;;;;;18.91;68.81;101318.38;5069249;28;1509;-59
2021/09/16 06:46:37;;;;;;;;;;;;;;;18.92;68.55;101325.50;5057745;28;878;-59
2021/09/16 06:49:02;;;;;;;;;;;;;;;18.90;68.53;101319.38;5057583;28;1013;-59
2021/09/16 06:51:28;;;;;;;;;;;;;;;18.91;68.97;101325.63;5039925;28;1036;-59
2021/09/16 06:53:53;;;;;;;;;;;;;;;18.91;68.10;101325.63;5057974;28;792;-59
2021/09/16 06:56:18;;;;;;;;;;;;;;;18.91;68.91;101337.28;5057775;28;933;-59
2021/09/16 06:58:43;;;;;;;;;;;;;;;18.92;68.51;101332.72;5057502;28;1429;-59
2021/09/16 07:01:08;;;;;;;;;;;;;;;18.91;68.37;101336.44;5073388;28;1963;-60
2021/09/16 07:03:33;;;;;;;;;;;;;;;18.92;68.41;101347.09;5073623;28;1507;-59
2021/09/16 07:05:58;;;;;;;;;;;;;;;18.92;67.76;101339.00;5061749;28;2652;-59
2021/09/16 07:08:23;;;;;;;;;;;;;;;18.91;68.10;101337.28;5067601;28;1977;-60
2021/09/16 07:10:48;;;;;;;;;;;;;;;18.93;68.49;101339.84;5048801;28;1851;-60
2021/09/16 07:13:13;;;;;;;;;;;;;;;18.92;68.18;101336.28;5070841;28;1674;-61
2021/09/16 07:15:38;;;;;;;;;;;;;;;18.93;68.15;101340.69;5073401;28;1317;-59
2021/09/16 07:18:03;;;;;;;;;;;;;;;18.94;67.55;101342.41;5065616;28;1592;-59
2021/09/16 07:20:28;;;;;;;;;;;;;;;18.95;68.12;101351.38;5070535;28;1890;-59
2021/09/16 07:22:54;;;;;;;;;;;;;;;18.94;67.96;101342.41;5069037;28;1939;-59
2021/09/16 07:25:19;;;;;;;;;;;;;;;18.95;67.66;101340.56;5074651;28;1615;-59
2021/09/16 07:27:44;;;;;;;;;;;;;;;18.96;67.75;101342.28;5065682;28;1978;-59
2021/09/16 07:30:09;;;;;;;;;;;;;;;18.95;67.04;101349.53;5062878;28;1894;-59
2021/09/16 07:32:34;;;;;;;;;;;;;;;18.96;66.74;101350.38;5070904;28;1890;-59
2021/09/16 07:34:59;;;;;;;;;;;;;;;18.95;67.10;101340.56;5060641;28;1538;-59
2021/09/16 07:37:24;;;;;;;;;;;;;;;18.94;66.32;101352.34;5069697;28;1518;-59
2021/09/16 07:39:49;;;;;;;;;;;;;;;18.94;66.71;101353.22;5067492;28;1947;-59
2021/09/16 07:42:14;;;;;;;;;;;;;;;18.94;66.82;101352.34;5067899;28;2053;-59
2021/09/16 07:44:40;;;;;;;;;;;;;;;18.95;66.33;101349.53;5069764;28;1485;-59
2021/09/16 07:47:05;;;;;;;;;;;;;;;18.95;66.75;101354.91;5069135;28;1383;-59
2021/09/16 07:49:30;;;;;;;;;;;;;;;18.95;66.02;101362.16;5065439;28;1708;-60
2021/09/16 07:51:55;;;;;;;;;;;;;;;18.94;66.56;101361.31;5069777;28;1481;-59
2021/09/16 07:54:20;;;;;;;;;;;;;;;18.95;67.03;101360.31;5058456;28;1349;-59
2021/09/16 07:56:45;;;;;;;;;;;;;;;18.95;66.32;101354.91;5073895;28;1176;-59
2021/09/16 07:59:10;;;;;;;;;;;;;;;18.96;66.20;101366.56;5067138;28;1819;-59
2021/09/16 08:01:35;;;;;;;;;;;;;;;18.96;66.76;101361.16;5047095;28;2158;-59
2021/09/16 08:04:00;;;;;;;;;;;;;;;18.96;65.76;101380.09;5068977;28;1551;-59
2021/09/16 08:06:25;;;;;;;;;;;;;;;18.95;66.52;101378.38;5066800;28;1743;-60
2021/09/16 08:08:50;;;;;;;;;;;;;;;18.96;65.93;101377.38;5062321;28;2506;-59
2021/09/16 08:11:15;;;;;;;;;;;;;;;18.95;66.54;101384.63;5064723;28;1634;-60
2021/09/16 08:13:41;;;;;;;;;;;;;;;18.96;65.16;101375.53;5059224;28;1799;-60
2021/09/16 08:16:06;;;;;;;;;;;;;;;18.96;65.88;101378.22;5065277;28;1546;-59
2021/09/16 08:18:31;;;;;;;;;;;;;;;18.96;65.15;101378.22;5068434;28;2071;-59
2021/09/16 08:20:56;;;;;;;;;;;;;;;18.96;65.34;101378.22;5067589;28;1910;-59
2021/09/16 08:23:21;;;;;;;;;;;;;;;18.97;64.96;101373.69;5071518;28;1599;-59
2021/09/16 08:25:46;;;;;;;;;;;;;;;18.98;65.90;101375.41;5072596;28;1631;-59
2021/09/16 08:28:11;;;;;;;;;;;;;;;18.98;64.91;101383.50;5061743;28;1729;-59
2021/09/16 08:30:36;;;;;;;;;;;;;;;18.99;65.50;101390.56;5056061;28;1346;-60
2021/09/16 08:33:01;;;;;;;;;;;;;;;18.98;65.62;101387.06;5066811;28;1411;-60
2021/09/16 08:35:26;;;;;;;;;;;;;;;18.98;65.18;101381.66;5074921;28;1266;-60
2021/09/16 08:37:51;;;;;;;;;;;;;;;18.97;65.94;101388.03;5074963;28;1417;-59
2021/09/16 08:40:17;;;;;;;;;;;;;;;19.01;65.50;101388.59;5074482;28;1953;-59
2021/09/16 08:42:42;;;;;;;;;;;;;;;18.99;65.09;101391.44;5074998;28;1426;-59
2021/09/16 08:45:07;;;;;;;;;;;;;;;18.98;65.30;101392.47;5074831;28;1606;-60
2021/09/16 08:47:36;;;;;;;;;;;;;;;18.99;65.37;101387.88;5075092;28;1377;-59
2021/09/16 08:50:01;;;;;;;;;;;;;;;18.99;64.91;101394.13;5072674;28;1617;-60
2021/09/16 08:52:26;;;;;;;;;;;;;;;19.00;65.49;101403.09;5074069;28;1601;-59
2021/09/16 08:54:51;;;;;;;;;;;;;;;19.01;65.44;101405.66;5074507;28;1561;-59
2021/09/16 08:57:16;;;;;;;;;;;;;;;19.02;65.16;101403.81;5074055;28;1530;-59
2021/09/16 08:59:42;;;;;;;;;;;;;;;19.02;64.92;101410.06;5073465;28;1918;-60
2021/09/16 09:02:07;;;;;;;;;;;;;;;19.03;65.74;101410.91;5061319;28;1799;-60
2021/09/16 09:04:32;;;;;;;;;;;;;;;19.02;65.56;101399.25;5062313;28;1659;-59
2021/09/16 09:06:57;;;;;;;;;;;;;;;19.01;65.38;101399.41;5074958;28;1518;-59
2021/09/16 09:09:22;;;;;;;;;;;;;;;19.02;65.28;101393.00;5074698;28;1708;-59
2021/09/16 09:11:47;;;;;;;;;;;;;;;19.03;65.42;101397.41;5071411;28;1674;-59
2021/09/16 09:14:13;;;;;;;;;;;;;;;19.03;66.10;101400.13;5069727;28;1496;-59
2021/09/16 09:16:38;;;;;;;;;;;;;;;19.06;65.75;101418.75;5063384;28;1940;-60
2021/09/16 09:19:03;;;;;;;;;;;;;;;19.06;65.44;101413.34;5073177;28;2151;-59
2021/09/16 09:21:28;;;;;;;;;;;;;;;19.04;65.26;101410.78;5074504;28;2027;-59
2021/09/16 09:23:56;;;;;;;;;;;;;;;19.06;65.34;101416.91;5075143;28;2016;-60
2021/09/16 09:26:21;;;;;;;;;;;;;;;19.04;64.97;101418.88;5075245;28;2185;-59
2021/09/16 09:28:46;;;;;;;;;;;;;;;19.04;64.37;101418.88;5074855;28;1814;-59
2021/09/16 09:31:11;;;;;;;;;;;;;;;19.04;64.52;101412.63;5074961;28;1695;-59
2021/09/16 09:33:36;;;;;;;;;;;;;;;19.05;64.56;101420.59;5074132;28;1938;-59
2021/09/16 09:36:01;;;;;;;;;;;;;;;19.04;64.58;101413.47;5073103;28;2066;-60
2021/09/16 09:38:26;;;;;;;;;;;;;;;19.05;65.32;101417.91;5074399;28;2325;-60
2021/09/16 09:40:51;;;;;;;;;;;;;;;19.08;65.78;101417.63;5070012;28;1897;-60
2021/09/16 09:43:16;;;;;;;;;;;;;;;19.08;65.14;101423.03;5068673;28;1999;-59
2021/09/16 09:45:41;;;;;;;;;;;;;;;19.11;64.88;101412.94;5065213;28;2011;-60
2021/09/16 09:48:06;;;;;;;;;;;;;;;19.10;64.97;101412.06;5067113;28;1951;-59
2021/09/16 09:50:32;;;;;;;;;;;;;;;19.11;65.23;101416.50;5071142;28;2216;-59
2021/09/16 09:52:57;;;;;;;;;;;;;;;19.11;65.47;101413.78;5071201;28;1997;-59
2021/09/16 09:55:22;;;;;;;;;;;;;;;19.11;64.80;101423.75;5071571;28;1945;-59
2021/09/16 09:57:47;;;;;;;;;;;;;;;19.10;65.00;101422.03;5070704;28;2007;-60
2021/09/16 10:00:12;;;;;;;;;;;;;;;19.12;65.14;101430.84;5060054;28;1980;-59
2021/09/16 10:02:37;;;;;;;;;;;;;;;19.14;65.52;101434.28;5071539;28;1897;-59
2021/09/16 10:05:02;;;;;;;;;;;;;;;19.15;64.49;101435.97;5066196;28;2174;-59
2021/09/16 10:07:27;;;;;;;;;;;;;;;19.12;65.15;101437.09;5053967;28;1502;-59
2021/09/16 10:09:52;;;;;;;;;;;;;;;19.12;64.99;101425.44;5068272;28;1997;-59
2021/09/16 10:12:18;;;;;;;;;;;;;;;19.12;65.32;101428.16;5059094;28;1907;-59
2021/09/16 10:14:43;;;;;;;;;;;;;;;19.12;64.86;101433.56;5067303;28;1886;-59
2021/09/16 10:17:08;;;;;;;;;;;;;;;19.13;65.25;101435.25;5061876;28;1554;-59
2021/09/16 10:19:33;;;;;;;;;;;;;;;19.13;64.18;101433.41;5065554;28;1926;-59
2021/09/16 10:21:58;;;;;;;;;;;;;;;19.16;64.51;101424.19;5059006;28;1649;-59
2021/09/16 10:24:23;;;;;;;;;;;;;;;19.16;64.87;101425.03;5059557;28;2079;-59
2021/09/16 10:26:49;;;;;;;;;;;;;;;19.19;65.20;101431.97;5060681;28;1955;-59
2021/09/16 10:29:14;;;;;;;;;;;;;;;19.19;64.67;101437.38;5068431;28;1831;-59
2021/09/16 10:31:39;;;;;;;;;;;;;;;19.19;64.44;101437.38;5063306;28;1573;-60
2021/09/16 10:34:04;;;;;;;;;;;;;;;19.21;64.18;101440.81;5061238;28;1701;-59
2021/09/16 10:36:29;;;;;;;;;;;;;;;19.21;64.11;101441.66;5071949;28;1858;-59
2021/09/16 10:38:55;;;;;;;;;;;;;;;19.21;65.22;101436.25;5062189;28;1884;-60
2021/09/16 10:41:21;;;;;;;;;;;;;;;19.21;64.79;101427.28;5063778;28;2077;-59
2021/09/16 10:43:46;;;;;;;;;;;;;;;19.20;64.81;101425.59;5075890;28;1848;-59
2021/09/16 10:46:11;;;;;;;;;;;;;;;19.20;64.30;101431.84;5068736;28;1592;-59
2021/09/16 10:48:36;;;;;;;;;;;;;;;19.21;64.53;101440.81;5069240;28;1640;-59
2021/09/16 10:51:01;;;;;;;;;;;;;;;19.22;65.37;101447.91;5071503;28;2014;-59
2021/09/16 10:53:26;;;;;;;;;;;;;;;19.22;64.62;101439.81;5068583;28;1856;-59
2021/09/16 10:55:51;;;;;;;;;;;;;;;19.22;64.77;101437.97;5072924;28;2094;-59
2021/09/16 10:58:16;;;;;;;;;;;;;;;19.22;64.48;101431.69;5072758;28;2059;-59
2021/09/16 11:00:42;;;;;;;;;;;;;;;19.23;65.26;101444.22;5071795;28;1977;-59
2021/09/16 11:03:07;;;;;;;;;;;;;;;19.25;64.66;101432.28;5056939;28;1834;-59
2021/09/16 11:05:32;;;;;;;;;;;;;;;19.27;64.57;101440.25;5074984;28;1806;-59
2021/09/16 11:07:58;;;;;;;;;;;;;;;19.27;64.54;101437.53;5072236;28;1885;-59
2021/09/16 11:10:24;;;;;;;;;;;;;;;19.27;65.13;101440.25;5071258;28;1873;-59
2021/09/16 11:12:50;;;;;;;;;;;;;;;19.28;64.56;101431.16;5076826;28;1541;-59
2021/09/16 11:15:15;;;;;;;;;;;;;;;19.29;64.72;101427.44;5068822;28;1881;-59
2021/09/16 11:17:40;;;;;;;;;;;;;;;19.33;64.79;101431.59;5072894;28;1507;-59
2021/09/16 11:20:05;;;;;;;;;;;;;;;19.34;64.69;101439.56;5057207;28;1902;-60
2021/09/16 11:22:30;;;;;;;;;;;;;;;19.32;64.89;101440.69;5064351;28;1964;-60
2021/09/16 11:24:55;;;;;;;;;;;;;;;19.31;64.13;101436.28;5066716;28;1651;-59
2021/09/16 11:27:20;;;;;;;;;;;;;;;19.31;64.28;101445.25;5057254;28;1879;-60
2021/09/16 11:29:45;;;;;;;;;;;;;;;19.30;64.96;101440.81;5064364;28;1830;-60
2021/09/16 11:32:10;;;;;;;;;;;;;;;19.31;65.20;101441.69;5069195;28;1905;-60
2021/09/16 11:34:35;;;;;;;;;;;;;;;19.32;64.24;101440.69;5066021;28;2130;-60
2021/09/16 11:37:01;;;;;;;;;;;;;;;19.32;64.92;101443.38;5063540;28;1907;-60
2021/09/16 11:39:26;;;;;;;;;;;;;;;19.33;64.52;101440.56;5065972;28;1995;-60
2021/09/16 11:41:51;;;;;;;;;;;;;;;19.33;64.54;101451.34;5065691;28;1893;-59
2021/09/16 11:44:16;;;;;;;;;;;;;;;19.34;64.45;101449.50;5069903;28;1460;-60
2021/09/16 11:46:41;;;;;;;;;;;;;;;19.36;64.39;101455.59;5069655;28;1832;-60
2021/09/16 11:49:06;;;;;;;;;;;;;;;19.38;64.35;101448.22;5075212;28;1922;-60
2021/09/16 11:51:31;;;;;;;;;;;;;;;19.39;64.36;101449.91;5064308;28;1726;-60
2021/09/16 11:53:56;;;;;;;;;;;;;;;19.45;64.45;101440.41;5056360;28;1714;-60
2021/09/16 11:56:21;;;;;;;;;;;;;;;19.47;63.89;101436.56;5057405;28;2530;-60
2021/09/16 11:58:46;;;;;;;;;;;;;;;19.45;63.79;101443.09;5065061;28;2392;-59
2021/09/16 12:01:13;;;;;;;;;;;;;;;19.43;64.39;101437.84;5064430;28;1922;-59
2021/09/16 12:03:38;;;;;;;;;;;;;;;19.43;65.13;101444.09;5060199;28;1379;-59
2021/09/16 12:06:03;;;;;;;;;;;;;;;19.45;64.39;101443.94;5066918;28;1737;-59
2021/09/16 12:08:28;;;;;;;;;;;;;;;19.46;64.31;101451.06;5064285;28;1323;-60
2021/09/16 12:10:53;;;;;;;;;;;;;;;19.46;64.24;101451.06;5076246;28;802;-59
2021/09/16 12:13:18;;;;;;;;;;;;;;;19.47;64.76;101458.19;5076525;28;886;-59
2021/09/16 12:15:43;;;;;;;;;;;;;;;19.48;64.58;101453.63;5076334;28;898;-59
2021/09/16 12:18:09;;;;;;;;;;;;;;;19.49;64.97;101450.78;5065516;28;1873;-59
2021/09/16 12:20:34;;;;;;;;;;;;;;;19.50;64.74;101441.72;5056391;28;1957;-59
2021/09/16 12:22:59;;;;;;;;;;;;;;;19.52;64.55;101446.97;5056671;28;843;-59
2021/09/16 12:25:26;;;;;;;;;;;;;;;19.52;63.55;101445.13;5065978;28;1661;-59
2021/09/16 12:27:51;;;;;;;;;;;;;;;19.54;63.88;101453.06;5066677;28;1232;-59
2021/09/16 12:30:18;;;;;;;;;;;;;;;19.55;64.36;101447.53;5074208;28;1180;-59
2021/09/16 12:32:43;;;;;;;;;;;;;;;19.57;64.19;101437.44;5072561;28;1769;-59
2021/09/16 12:35:08;;;;;;;;;;;;;;;19.59;63.59;101440.00;5056393;28;1068;-59